createdAt,value
2023-04-19T00:03:19.081Z,7.70
2023-04-19T00:07:05.318Z,7.62
2023-04-19T00:10:51.577Z,7.59
2023-04-19T00:14:37.870Z,7.54
2023-04-19T00:18:24.384Z,7.52
2023-04-19T00:22:16.848Z,7.51
2023-04-19T00:26:16.954Z,7.50
2023-04-19T00:30:21.483Z,7.43
2023-04-19T00:34:19.820Z,7.42
2023-04-19T00:38:21.334Z,7.45
2023-04-19T00:42:24.203Z,7.39
2023-04-19T00:46:24.261Z,7.39
2023-04-19T00:50:27.271Z,7.27
2023-04-19T00:54:26.237Z,7.17
2023-04-19T00:58:28.952Z,7.04
2023-04-19T01:02:27.422Z,6.93
2023-04-19T01:06:30.341Z,6.81
2023-04-19T01:10:30.329Z,6.85
2023-04-19T01:14:32.710Z,6.80
2023-04-19T01:18:32.387Z,6.79
2023-04-19T01:22:35.281Z,6.74
2023-04-19T01:26:35.548Z,6.79
2023-04-19T01:30:38.770Z,6.71
2023-04-19T01:34:38.416Z,6.68
2023-04-19T01:38:40.855Z,6.67
2023-04-19T01:42:42.456Z,6.74
2023-04-19T01:46:44.922Z,6.71
2023-04-19T01:50:45.514Z,6.59
2023-04-19T01:54:48.229Z,6.57
2023-04-19T01:58:48.380Z,6.59
2023-04-19T02:02:51.510Z,6.65
2023-04-19T02:06:51.471Z,6.87
2023-04-19T02:10:54.318Z,6.93
2023-04-19T02:14:54.436Z,6.99
2023-04-19T02:19:05.401Z,7.03
2023-04-19T02:23:05.567Z,7.06
2023-04-19T02:27:09.350Z,7.08
2023-04-19T02:31:09.450Z,7.08
2023-04-19T02:35:11.961Z,7.00
2023-04-19T02:39:11.412Z,7.00
2023-04-19T02:43:10.371Z,6.98
2023-04-19T02:47:11.161Z,6.94
2023-04-19T02:51:07.362Z,6.68
2023-04-19T02:55:11.289Z,6.62
2023-04-19T02:59:08.793Z,6.60
2023-04-19T03:03:09.802Z,6.69
2023-04-19T03:07:08.072Z,6.49
2023-04-19T03:11:08.552Z,6.59
2023-04-19T03:15:05.608Z,6.63
2023-04-19T03:19:06.229Z,6.66
2023-04-19T03:23:07.703Z,6.66
2023-04-19T03:27:08.581Z,6.67
2023-04-19T03:31:05.665Z,6.63
2023-04-19T03:35:06.164Z,6.73
2023-04-19T03:39:02.878Z,6.84
2023-04-19T03:43:03.636Z,7.05
2023-04-19T03:47:02.841Z,7.31
2023-04-19T03:51:07.487Z,7.20
2023-04-19T03:55:06.623Z,7.62
2023-04-19T03:59:10.486Z,8.06
2023-04-19T04:03:08.690Z,8.56
2023-04-19T04:07:09.285Z,9.00
2023-04-19T04:11:05.701Z,9.45
2023-04-19T04:15:07.736Z,9.85
2023-04-19T04:19:07.161Z,10.16
2023-04-19T04:23:10.837Z,10.44
2023-04-19T04:27:11.384Z,10.50
2023-04-19T04:31:14.642Z,10.78
2023-04-19T04:35:13.379Z,11.08
2023-04-19T04:39:15.819Z,11.36
2023-04-19T04:43:19.046Z,11.54
2023-04-19T04:47:18.781Z,11.72
2023-04-19T04:51:25.920Z,11.80
2023-04-19T04:55:25.862Z,12.07
2023-04-19T04:59:29.797Z,12.31
2023-04-19T05:03:30.928Z,12.44
2023-04-19T05:07:35.065Z,12.58
2023-04-19T05:11:34.944Z,12.72
2023-04-19T05:15:37.622Z,12.92
2023-04-19T05:19:37.764Z,12.99
2023-04-19T05:23:42.665Z,13.09
2023-04-19T05:27:42.768Z,13.08
2023-04-19T05:31:46.308Z,13.17
2023-04-19T05:35:58.877Z,13.33
2023-04-19T05:40:02.301Z,13.62
2023-04-19T05:43:44.918Z,13.82
2023-04-19T05:47:45.768Z,13.58
2023-04-19T05:52:03.463Z,13.61
2023-04-19T05:56:16.691Z,13.78
2023-04-19T06:00:19.815Z,14.07
2023-04-19T06:04:26.069Z,14.47
2023-04-19T06:08:29.898Z,14.66
2023-04-19T06:12:27.172Z,14.81
2023-04-19T06:16:30.433Z,14.75
2023-04-19T06:20:28.848Z,15.07
2023-04-19T06:24:34.268Z,15.37
2023-04-19T06:28:34.697Z,15.56
2023-04-19T06:32:37.447Z,15.60
2023-04-19T06:36:35.846Z,15.76
2023-04-19T06:40:39.263Z,15.95
2023-04-19T06:44:38.764Z,16.06
2023-04-19T06:48:41.873Z,16.31
2023-04-19T06:52:41.790Z,16.62
2023-04-19T06:56:44.405Z,16.44
2023-04-19T07:00:43.854Z,16.28
2023-04-19T07:04:46.961Z,16.21
2023-04-19T07:08:50.614Z,16.32
2023-04-19T07:12:53.881Z,16.47
2023-04-19T07:16:55.939Z,16.86
2023-04-19T07:20:59.147Z,17.04
2023-04-19T07:25:06.163Z,17.20
2023-04-19T07:29:10.650Z,17.50
2023-04-19T07:33:09.270Z,17.52
2023-04-19T07:37:12.354Z,17.59
2023-04-19T11:43:18.184Z,15.16
2023-04-19T11:47:18.481Z,15.33
2023-04-19T11:51:18.081Z,15.51
2023-04-19T11:55:22.854Z,15.60
2023-04-19T11:59:22.048Z,15.62
2023-04-19T12:03:26.452Z,15.47
2023-04-19T12:07:23.416Z,15.29
2023-04-19T12:11:23.050Z,15.12
2023-04-19T12:15:25.830Z,15.01
2023-04-19T12:19:26.064Z,14.91
2023-04-19T12:23:26.426Z,14.79
2023-04-19T12:27:25.950Z,14.62
2023-04-19T12:31:29.265Z,14.44
2023-04-19T12:35:28.356Z,14.37
2023-04-19T12:39:40.282Z,14.41
2023-04-19T12:43:43.604Z,14.35
2023-04-19T12:47:26.107Z,14.18
2023-04-19T12:51:26.097Z,14.11
2023-04-19T12:55:28.991Z,14.03
2023-04-19T12:59:28.113Z,13.93
2023-04-19T13:03:30.955Z,13.93
2023-04-19T13:07:31.053Z,13.83
2023-04-19T13:11:34.241Z,13.74
2023-04-19T13:15:34.071Z,13.67
2023-04-19T13:19:37.120Z,13.56
2023-04-19T13:23:37.375Z,13.52
2023-04-19T13:27:40.786Z,13.52
2023-04-19T13:31:41.254Z,13.54
2023-04-19T13:35:44.859Z,13.54
2023-04-19T13:39:43.237Z,13.51
2023-04-19T13:43:46.150Z,13.56
2023-04-19T13:47:46.306Z,13.56
2023-04-19T13:51:50.633Z,13.54
2023-04-19T13:55:32.685Z,13.46
2023-04-19T13:59:32.294Z,13.26
2023-04-19T14:03:26.891Z,12.98
2023-04-19T14:07:17.292Z,12.69
2023-04-19T14:11:03.656Z,12.47
2023-04-19T14:14:50.410Z,12.28
2023-04-19T14:18:37.113Z,12.15
2023-04-19T14:22:23.738Z,12.02
2023-04-19T14:26:11.373Z,11.94
2023-04-19T14:29:58.529Z,11.84
2023-04-19T14:33:45.072Z,11.70
2023-04-19T14:37:31.565Z,11.64
2023-04-19T14:41:18.407Z,11.59
2023-04-19T14:45:05.254Z,11.48
2023-04-19T14:48:52.333Z,11.47
2023-04-19T14:52:39.641Z,11.39
2023-04-19T14:56:26.497Z,11.34
2023-04-19T15:00:13.202Z,11.30
2023-04-19T15:04:04.299Z,11.30
2023-04-19T15:07:51.889Z,11.32
2023-04-19T15:11:38.387Z,11.31
2023-04-19T15:15:24.898Z,11.31
2023-04-19T15:19:11.530Z,11.32
2023-04-19T15:22:58.809Z,11.32
2023-04-19T15:26:45.533Z,11.33
2023-04-19T15:30:32.289Z,11.33
2023-04-19T15:34:18.951Z,11.39
2023-04-19T15:38:05.541Z,11.39
2023-04-19T15:41:52.096Z,11.41
2023-04-19T15:45:38.379Z,11.41
2023-04-19T15:49:32.993Z,11.43
2023-04-19T15:53:30.196Z,11.43
2023-04-19T15:57:29.508Z,11.45
2023-04-19T16:01:32.398Z,11.57
2023-04-19T16:05:32.451Z,11.60
2023-04-19T16:09:34.876Z,11.65
2023-04-19T16:13:34.540Z,11.70
2023-04-19T16:17:36.949Z,11.70
2023-04-19T16:21:36.443Z,11.72
2023-04-19T16:25:37.377Z,11.69
2023-04-19T16:29:24.987Z,11.70
2023-04-19T16:33:12.942Z,11.73
2023-04-19T16:37:12.486Z,11.82
2023-04-19T16:41:15.246Z,11.77
2023-04-19T16:45:14.262Z,11.84
2023-04-19T16:49:17.155Z,11.77
2023-04-19T16:53:11.759Z,11.83
2023-04-19T16:57:10.450Z,11.77
2023-04-19T17:01:10.960Z,11.74
2023-04-19T17:05:14.038Z,11.72
2023-04-19T17:09:12.465Z,11.74
2023-04-19T17:13:15.540Z,11.75
2023-04-19T17:17:14.401Z,11.75
2023-04-19T17:21:16.675Z,11.75
2023-04-19T17:25:11.120Z,11.66
2023-04-19T17:29:09.837Z,11.67
2023-04-19T17:33:14.544Z,11.66
2023-04-19T17:37:18.122Z,11.65
2023-04-19T17:41:16.551Z,11.78
2023-04-19T17:45:19.583Z,11.72
2023-04-19T17:49:18.758Z,11.68
2023-04-19T17:53:20.849Z,11.68
2023-04-19T17:57:15.974Z,11.59
2023-04-19T18:01:17.335Z,11.47
2023-04-19T18:05:13.557Z,11.41
2023-04-19T18:09:13.991Z,11.43
2023-04-19T18:13:10.746Z,11.35
2023-04-19T18:17:11.405Z,11.28
2023-04-19T18:21:07.614Z,11.25
2023-04-19T18:25:06.401Z,11.17
2023-04-19T18:29:07.463Z,11.09
2023-04-19T18:33:08.239Z,11.10
2023-04-19T18:37:06.015Z,11.21
2023-04-19T18:41:04.747Z,11.19
2023-04-19T18:45:05.314Z,11.23
2023-04-19T18:48:59.703Z,11.24
2023-04-19T18:52:58.382Z,11.21
2023-04-19T18:57:21.738Z,11.11
2023-04-19T19:01:19.321Z,10.99
2023-04-19T19:05:16.371Z,10.97
2023-04-19T19:09:22.626Z,10.90
2023-04-19T19:13:17.990Z,10.84
2023-04-19T19:17:16.628Z,10.88
2023-04-19T19:21:14.719Z,10.83
2023-04-19T19:25:17.690Z,10.80
2023-04-19T19:29:16.277Z,10.76
2023-04-19T19:33:16.987Z,10.69
2023-04-19T19:37:29.023Z,10.68
2023-04-19T19:42:03.381Z,10.60
2023-04-19T19:45:48.370Z,10.58
2023-04-19T19:50:13.737Z,10.55
2023-04-19T19:54:05.152Z,10.54
2023-04-19T20:02:07.063Z,10.56
2023-04-19T20:10:10.797Z,10.50
2023-04-19T20:14:08.214Z,10.52
2023-04-19T20:18:08.651Z,10.42
2023-04-19T20:22:05.938Z,10.44
2023-04-19T20:26:04.490Z,10.45
2023-04-19T20:29:58.720Z,10.50
2023-04-19T20:34:02.937Z,10.48
2023-04-19T20:37:42.866Z,10.42
2023-04-19T20:41:39.946Z,10.45
2023-04-19T20:45:40.606Z,10.47
2023-04-19T20:49:37.153Z,10.48
2023-04-19T20:53:37.082Z,10.49
2023-04-19T20:57:31.294Z,10.44
2023-04-19T21:01:35.470Z,10.47
2023-04-19T21:05:14.987Z,10.50
2023-04-19T21:09:12.101Z,10.55
2023-04-19T21:13:12.447Z,10.55
2023-04-19T21:17:08.984Z,10.53
2023-04-19T21:21:09.783Z,10.62
2023-04-19T21:25:05.921Z,10.63
2023-04-19T21:29:04.275Z,10.63
2023-04-19T21:33:04.646Z,10.65
2023-04-19T21:37:04.818Z,10.59
2023-04-19T21:41:02.084Z,10.59
2023-04-19T21:45:02.580Z,10.57
2023-04-19T21:48:59.244Z,10.55
2023-04-19T21:52:57.680Z,10.48
2023-04-19T21:56:51.912Z,10.49
2023-04-19T22:00:52.565Z,10.48
2023-04-19T22:04:48.829Z,10.49
2023-04-19T22:08:49.692Z,10.52
2023-04-19T22:12:57.371Z,10.51
2023-04-19T22:16:59.062Z,10.46
2023-04-19T22:20:53.753Z,10.47
2023-04-19T22:24:58.733Z,10.38
2023-04-19T22:28:55.047Z,10.24
2023-04-19T22:32:55.661Z,10.16
2023-04-19T22:36:52.020Z,10.18
2023-04-19T22:40:52.353Z,10.19
2023-04-19T22:44:50.841Z,10.20
2023-04-19T22:48:45.594Z,10.19
2023-04-19T22:52:49.948Z,10.21
2023-04-19T22:56:45.974Z,10.27
2023-04-19T23:00:46.400Z,10.28
2023-04-19T23:04:43.683Z,10.22
2023-04-19T23:08:43.970Z,10.29
2023-04-19T23:12:38.239Z,10.36
2023-04-19T23:16:36.373Z,10.41
2023-04-19T23:20:37.212Z,10.44
2023-04-19T23:24:37.450Z,10.42
2023-04-19T23:28:34.048Z,10.43
2023-04-19T23:32:34.587Z,10.43
2023-04-19T23:36:31.052Z,10.45
2023-04-19T23:40:29.211Z,10.49
2023-04-19T23:44:24.365Z,10.46
2023-04-19T23:48:23.880Z,10.45
2023-04-19T23:52:20.192Z,10.45
2023-04-19T23:56:20.821Z,10.49
